createdAt,value
2019-03-23T00:00:01.791Z,100922.97
2019-03-23T00:02:35.019Z,100929.64
2019-03-23T00:05:14.955Z,100935.37
2019-03-23T00:07:47.040Z,100936.31
2019-03-23T00:10:18.091Z,100944.69
2019-03-23T00:12:56.893Z,100944.72
2019-03-23T00:15:28.623Z,100953.91
2019-03-23T00:18:00.191Z,100955.37
2019-03-23T00:21:37.108Z,100965.85
2019-03-23T00:24:08.547Z,100975.41
2019-03-23T00:26:41.310Z,100991.36
2019-03-23T00:29:12.367Z,100991.36
2019-03-23T00:31:43.534Z,100992.02
2019-03-23T00:34:16.977Z,100992.87
2019-03-23T00:36:48.614Z,100996.21
2019-03-23T00:39:20.483Z,100998.95
2019-03-23T00:41:55.528Z,100995.03
2019-03-23T00:44:30.499Z,100998.71
2019-03-23T00:47:01.919Z,101008.12
2019-03-23T00:49:35.655Z,101012.09
2019-03-23T00:52:07.291Z,101012.42
2019-03-23T00:54:39.463Z,101017.25
2019-03-23T00:57:10.667Z,101025.61
2019-03-23T00:59:42.578Z,101032.45
2019-03-23T01:02:14.765Z,101036.23
2019-03-23T01:04:46.318Z,101042.97
2019-03-23T01:07:17.119Z,101045.72
2019-03-23T01:09:48.409Z,101032.27
2019-03-23T01:12:19.254Z,101054.60
2019-03-23T01:14:51.009Z,101068.55
2019-03-23T01:17:23.310Z,101060.70
2019-03-23T01:19:54.688Z,101072.75
2019-03-23T01:22:28.341Z,101074.13
2019-03-23T01:25:00.315Z,101073.48
2019-03-23T01:27:31.920Z,101069.75
2019-03-23T01:30:03.025Z,101072.13
2019-03-23T01:32:35.694Z,101078.38
2019-03-23T01:35:08.495Z,101080.41
2019-03-23T01:37:42.495Z,101076.39
2019-03-23T01:40:14.569Z,101084.98
2019-03-23T01:42:45.740Z,101080.70
2019-03-23T01:45:20.140Z,101081.15
2019-03-23T01:47:50.809Z,101091.69
2019-03-23T01:50:21.338Z,101094.44
2019-03-23T01:52:52.438Z,101096.64
2019-03-23T01:55:23.128Z,101094.63
2019-03-23T01:57:55.187Z,101096.09
2019-03-23T02:00:26.387Z,101095.86
2019-03-23T02:02:56.944Z,101095.55
2019-03-23T02:05:29.162Z,101095.98
2019-03-23T02:08:00.953Z,101097.52
2019-03-23T02:10:32.679Z,101096.17
2019-03-23T02:13:04.798Z,101100.81
2019-03-23T02:15:36.399Z,101103.56
2019-03-23T02:18:06.273Z,101103.05
2019-03-23T02:20:37.858Z,101103.43
2019-03-23T02:23:08.902Z,101104.80
2019-03-23T02:25:39.894Z,101102.70
2019-03-23T02:28:14.472Z,101099.61
2019-03-23T02:30:50.892Z,101103.20
2019-03-23T02:33:22.103Z,101098.94
2019-03-23T02:35:53.046Z,101100.09
2019-03-23T02:38:24.241Z,101103.53
2019-03-23T02:40:55.280Z,101100.30
2019-03-23T02:43:27.765Z,101102.24
2019-03-23T02:45:58.837Z,101104.76
2019-03-23T02:48:30.788Z,101102.69
2019-03-23T02:51:02.378Z,101101.37
2019-03-23T02:53:34.738Z,101103.02
2019-03-23T02:56:06.081Z,101102.69
2019-03-23T02:58:37.357Z,101098.61
2019-03-23T03:01:08.553Z,101106.69
2019-03-23T03:03:39.538Z,101102.00
2019-03-23T03:06:11.094Z,101100.75
2019-03-23T03:08:43.838Z,101103.31
2019-03-23T03:11:16.694Z,101105.88
2019-03-23T03:13:49.377Z,101106.27
2019-03-23T03:16:20.733Z,101099.06
2019-03-23T03:18:52.629Z,101098.97
2019-03-23T03:21:23.141Z,101089.44
2019-03-23T03:23:55.445Z,101080.42
2019-03-23T03:26:27.322Z,101087.44
2019-03-23T03:28:58.064Z,101085.53
2019-03-23T03:31:29.351Z,101085.87
2019-03-23T03:33:59.256Z,101084.58
2019-03-23T03:36:30.369Z,101076.85
2019-03-23T03:39:07.483Z,101082.05
2019-03-23T03:41:39.728Z,101073.81
2019-03-23T03:44:16.292Z,101078.96
2019-03-23T03:46:50.733Z,101069.88
2019-03-23T03:49:21.407Z,101069.74
2019-03-23T03:51:53.806Z,101063.22
2019-03-23T03:54:24.728Z,101064.55
2019-03-23T03:57:01.085Z,101055.09
2019-03-23T03:59:32.439Z,101065.18
2019-03-23T04:02:06.320Z,101053.22
2019-03-23T04:04:44.043Z,101049.27
2019-03-23T04:07:15.530Z,101047.11
2019-03-23T04:09:46.038Z,101035.17
2019-03-23T04:12:23.101Z,101035.59
2019-03-23T04:14:55.345Z,101031.03
2019-03-23T04:17:26.402Z,101022.51
2019-03-23T04:19:57.187Z,101024.53
2019-03-23T04:22:28.405Z,101014.61
2019-03-23T04:24:58.180Z,101011.88
2019-03-23T04:27:30.498Z,101011.95
2019-03-23T04:30:03.580Z,101004.12
2019-03-23T04:32:39.091Z,100997.47
2019-03-23T04:35:12.281Z,100990.59
2019-03-23T04:37:43.483Z,100978.96
2019-03-23T04:40:15.239Z,100980.34
2019-03-23T04:42:46.686Z,100971.39
2019-03-23T04:45:20.084Z,100964.47
2019-03-23T04:47:54.927Z,100958.87
2019-03-23T04:50:25.987Z,100964.40
2019-03-23T04:53:00.371Z,100947.05
2019-03-23T04:55:33.049Z,100944.55
2019-03-23T04:58:05.309Z,100939.93
2019-03-23T05:00:36.629Z,100938.46
2019-03-23T05:03:07.827Z,100936.26
2019-03-23T05:05:41.607Z,100926.31
2019-03-23T05:08:13.183Z,100924.24
2019-03-23T05:10:45.328Z,100916.82
2019-03-23T05:13:16.453Z,100922.22
2019-03-23T05:15:47.675Z,100913.89
2019-03-23T05:18:20.007Z,100903.65
2019-03-23T05:20:51.744Z,100897.73
2019-03-23T05:23:22.824Z,100892.63
2019-03-23T05:25:55.648Z,100883.17
2019-03-23T05:28:26.714Z,100876.58
2019-03-23T05:30:58.868Z,100873.78
2019-03-23T05:33:29.411Z,100865.09
2019-03-23T05:36:00.437Z,100864.33
2019-03-23T05:38:43.630Z,100861.28
2019-03-23T05:41:10.307Z,100858.19
2019-03-23T05:43:41.462Z,100853.20
2019-03-23T05:46:13.003Z,100846.87
2019-03-23T05:48:44.082Z,100838.04
2019-03-23T05:51:15.509Z,100830.09
2019-03-23T05:53:47.102Z,100824.84
2019-03-23T05:56:19.299Z,100816.91
2019-03-23T05:58:50.472Z,100810.08
2019-03-23T06:01:21.874Z,100811.03
2019-03-23T06:03:54.383Z,100803.83
2019-03-23T06:06:26.114Z,100796.28
2019-03-23T06:08:57.422Z,100793.52
2019-03-23T06:11:32.437Z,100791.16
2019-03-23T06:14:03.879Z,100781.36
2019-03-23T06:16:35.573Z,100777.64
2019-03-23T06:19:07.458Z,100774.95
2019-03-23T06:21:42.692Z,100768.06
2019-03-23T06:24:15.241Z,100766.91
2019-03-23T06:26:46.586Z,100754.34
2019-03-23T06:29:21.504Z,100748.83
2019-03-23T06:32:00.130Z,100741.45
2019-03-23T06:34:34.512Z,100742.20
2019-03-23T06:37:08.781Z,100727.27
2019-03-23T06:39:39.833Z,100726.62
2019-03-23T06:42:13.992Z,100713.41
2019-03-23T06:44:55.777Z,100708.05
2019-03-23T06:47:27.240Z,100692.88
2019-03-23T06:49:58.802Z,100689.23
2019-03-23T06:52:35.756Z,100678.38
2019-03-23T06:55:09.756Z,100681.44
2019-03-23T06:57:44.581Z,100676.79
2019-03-23T07:00:17.995Z,100664.97
2019-03-23T07:02:48.932Z,100661.05
2019-03-23T07:05:20.242Z,100665.34
2019-03-23T07:07:53.270Z,100647.54
2019-03-23T07:10:23.785Z,100647.64
2019-03-23T07:12:54.337Z,100638.56
2019-03-23T07:15:25.399Z,100644.61
2019-03-23T07:17:56.852Z,100648.62
2019-03-23T07:20:27.707Z,100641.93
2019-03-23T07:22:58.761Z,100626.70
2019-03-23T07:25:30.208Z,100636.02
2019-03-23T07:28:01.385Z,100631.02
2019-03-23T07:30:34.221Z,100624.84
2019-03-23T07:33:05.900Z,100621.64
2019-03-23T07:35:36.995Z,100614.52
2019-03-23T07:38:10.751Z,100615.08
2019-03-23T07:40:42.592Z,100610.08
2019-03-23T07:43:13.480Z,100605.38
2019-03-23T07:45:44.764Z,100596.71
2019-03-23T07:48:16.727Z,100609.36
2019-03-23T07:50:50.736Z,100596.69
2019-03-23T07:53:21.290Z,100596.69
2019-03-23T07:55:53.881Z,100589.39
2019-03-23T07:58:29.990Z,100593.55
2019-03-23T08:01:01.971Z,100588.64
2019-03-23T08:03:34.518Z,100585.67
2019-03-23T08:06:05.822Z,100585.67
2019-03-23T08:08:36.460Z,100577.19
2019-03-23T08:11:09.003Z,100571.00
2019-03-23T08:13:39.628Z,100570.16
2019-03-23T08:16:10.999Z,100555.92
2019-03-23T08:18:43.033Z,100571.27
2019-03-23T08:21:15.031Z,100565.75
2019-03-23T08:23:45.979Z,100554.20
2019-03-23T08:26:17.675Z,100555.84
2019-03-23T08:28:49.318Z,100550.84
2019-03-23T08:31:20.354Z,100541.41
2019-03-23T08:33:52.169Z,100552.59
2019-03-23T08:36:23.049Z,100545.44
2019-03-23T08:38:54.780Z,100544.77
2019-03-23T08:41:32.246Z,100548.56
2019-03-23T08:44:04.448Z,100539.66
2019-03-23T08:46:36.524Z,100537.48
2019-03-23T08:49:08.679Z,100537.48
2019-03-23T08:51:39.796Z,100528.50
2019-03-23T08:54:11.012Z,100528.50
2019-03-23T08:56:40.680Z,100525.59
2019-03-23T08:59:11.115Z,100534.58
2019-03-23T09:01:41.453Z,100526.42
2019-03-23T09:04:15.716Z,100528.50
2019-03-23T09:06:46.841Z,100530.59
2019-03-23T09:09:17.078Z,100527.50
2019-03-23T09:11:47.531Z,100514.61
2019-03-23T09:14:17.882Z,100514.61
2019-03-23T09:16:48.142Z,100510.86
2019-03-23T09:19:18.740Z,100507.78
2019-03-23T09:21:48.812Z,100510.65
2019-03-23T09:24:18.947Z,100494.86
2019-03-23T09:26:49.443Z,100494.86
2019-03-23T09:29:20.784Z,100504.05
2019-03-23T09:31:52.083Z,100504.55
2019-03-23T09:34:22.723Z,100508.25
2019-03-23T09:36:53.122Z,100498.88
2019-03-23T09:39:23.366Z,100503.16
2019-03-23T09:41:54.043Z,100502.11
2019-03-23T09:44:24.281Z,100499.48
2019-03-23T09:46:54.549Z,100496.55
2019-03-23T09:49:26.132Z,100502.56
2019-03-23T09:51:56.372Z,100506.06
2019-03-23T09:54:26.709Z,100514.63
2019-03-23T09:56:59.597Z,100517.61
2019-03-23T09:59:30.247Z,100519.11
2019-03-23T10:02:01.441Z,100519.67
2019-03-23T10:04:30.942Z,100525.11
2019-03-23T10:07:02.455Z,100533.88
2019-03-23T10:09:32.729Z,100539.98
2019-03-23T10:12:03.206Z,100537.00
2019-03-23T10:14:33.554Z,100535.84
2019-03-23T10:17:04.087Z,100536.80
2019-03-23T10:19:34.583Z,100536.55
2019-03-23T10:22:04.706Z,100534.23
2019-03-23T10:24:35.744Z,100541.05
2019-03-23T10:27:07.595Z,100545.55
2019-03-23T10:29:43.087Z,100554.66
2019-03-23T10:32:15.445Z,100569.17
2019-03-23T10:34:49.486Z,100578.48
2019-03-23T10:37:21.387Z,100580.46
2019-03-23T10:39:51.890Z,100579.87
2019-03-23T10:42:23.166Z,100580.64
2019-03-23T10:44:55.986Z,100579.74
2019-03-23T10:47:26.615Z,100578.56
2019-03-23T10:49:57.964Z,100587.19
2019-03-23T10:52:29.142Z,100593.36
2019-03-23T10:55:05.109Z,100594.59
2019-03-23T10:57:36.926Z,100595.59
2019-03-23T11:00:10.761Z,100595.81
2019-03-23T11:02:43.571Z,100596.22
2019-03-23T11:05:17.313Z,100602.31
2019-03-23T11:07:49.859Z,100603.70
2019-03-23T11:10:21.053Z,100609.66
2019-03-23T11:12:52.081Z,100627.49
2019-03-23T11:15:24.983Z,100627.33
2019-03-23T11:17:56.691Z,100635.11
2019-03-23T11:20:27.755Z,100633.59
2019-03-23T11:22:59.082Z,100638.98
2019-03-23T11:25:30.032Z,100643.64
2019-03-23T11:28:01.374Z,100647.19
2019-03-23T11:30:31.039Z,100642.15
2019-03-23T11:33:01.819Z,100645.08
2019-03-23T11:35:34.269Z,100641.61
2019-03-23T11:38:05.754Z,100647.78
2019-03-23T11:40:35.701Z,100642.09
2019-03-23T11:43:11.874Z,100650.97
2019-03-23T11:45:47.673Z,100642.63
2019-03-23T11:48:18.623Z,100649.13
2019-03-23T11:50:51.924Z,100647.61
2019-03-23T11:53:23.249Z,100649.19
2019-03-23T11:55:53.954Z,100650.31
2019-03-23T11:58:24.980Z,100643.53
2019-03-23T12:00:55.920Z,100648.73
2019-03-23T12:03:29.518Z,100649.73
2019-03-23T12:06:01.895Z,100653.45
2019-03-23T12:08:32.981Z,100651.05
2019-03-23T12:11:03.435Z,100652.91
2019-03-23T12:13:34.389Z,100659.55
2019-03-23T12:16:08.028Z,100664.74
2019-03-23T12:18:39.426Z,100667.58
2019-03-23T12:21:09.832Z,100669.70
2019-03-23T12:23:41.018Z,100674.25
2019-03-23T12:26:12.255Z,100676.86
2019-03-23T12:28:43.663Z,100680.29
2019-03-23T12:31:14.151Z,100677.05
2019-03-23T12:33:45.901Z,100682.79
2019-03-23T12:36:18.540Z,100680.77
2019-03-23T12:38:49.580Z,100681.92
2019-03-23T12:41:23.273Z,100688.97
2019-03-23T12:43:53.223Z,100689.30
2019-03-23T12:46:25.479Z,100687.11
2019-03-23T12:48:56.752Z,100691.42
2019-03-23T12:51:28.044Z,100703.02
2019-03-23T12:53:58.341Z,100706.81
2019-03-23T12:56:30.202Z,100718.00
2019-03-23T12:59:02.179Z,100721.91
2019-03-23T13:01:34.163Z,100734.81
2019-03-23T13:04:09.268Z,100739.84
2019-03-23T13:06:43.349Z,100740.06
2019-03-23T13:09:14.329Z,100740.66
2019-03-23T13:11:45.235Z,100736.52
2019-03-23T13:14:16.586Z,100739.77
2019-03-23T13:16:50.385Z,100745.09
2019-03-23T13:19:21.627Z,100745.20
2019-03-23T13:21:52.802Z,100750.38
2019-03-23T13:24:24.064Z,100751.69
2019-03-23T13:26:54.946Z,100766.44
2019-03-23T13:29:26.284Z,100777.89
2019-03-23T13:31:57.157Z,100775.59
2019-03-23T13:34:28.822Z,100780.63
2019-03-23T13:37:02.809Z,100784.77
2019-03-23T13:39:34.389Z,100791.91
2019-03-23T13:42:05.887Z,100777.72
2019-03-23T13:44:36.640Z,100788.67
2019-03-23T13:47:08.170Z,100795.30
2019-03-23T13:49:39.024Z,100794.81
2019-03-23T13:52:13.358Z,100797.34
2019-03-23T13:54:43.820Z,100797.34
2019-03-23T13:57:15.370Z,100803.19
2019-03-23T13:59:47.758Z,100801.31
2019-03-23T14:02:18.494Z,100804.37
2019-03-23T14:04:52.904Z,100807.95
2019-03-23T14:07:24.265Z,100803.32
2019-03-23T14:09:56.470Z,100815.37
2019-03-23T14:12:29.136Z,100813.06
2019-03-23T14:15:01.128Z,100817.80
2019-03-23T14:17:33.069Z,100818.09
2019-03-23T14:20:05.628Z,100821.99
2019-03-23T14:22:36.482Z,100827.67
2019-03-23T14:25:08.556Z,100825.80
2019-03-23T14:27:40.496Z,100830.82
2019-03-23T14:30:12.120Z,100835.12
2019-03-23T14:32:46.940Z,100834.83
2019-03-23T14:35:19.297Z,100837.48
2019-03-23T14:37:49.925Z,100840.34
2019-03-23T14:40:22.580Z,100837.98
2019-03-23T14:42:53.936Z,100841.95
2019-03-23T14:45:26.648Z,100854.91
2019-03-23T14:47:57.428Z,100859.20
2019-03-23T14:50:28.227Z,100861.24
2019-03-23T14:52:58.907Z,100864.88
2019-03-23T14:56:21.479Z,100865.05
2019-03-23T14:58:58.488Z,100868.13
2019-03-23T15:01:39.443Z,100862.74
2019-03-23T15:04:10.720Z,100871.33
2019-03-23T15:06:40.117Z,100874.47
2019-03-23T15:09:10.807Z,100877.37
2019-03-23T15:11:42.978Z,100882.00
2019-03-23T15:14:15.974Z,100882.64
2019-03-23T15:16:58.803Z,100882.88
2019-03-23T15:19:40.013Z,100884.57
2019-03-23T15:25:08.174Z,100888.91
2019-03-23T15:27:49.113Z,100885.51
2019-03-23T15:30:29.950Z,100888.81
2019-03-23T15:33:14.573Z,100895.91
2019-03-23T15:35:46.471Z,100888.20
2019-03-23T15:38:21.477Z,100879.27
2019-03-23T15:41:00.939Z,100886.66
2019-03-23T15:43:40.912Z,100881.47
2019-03-23T15:46:19.872Z,100879.39
2019-03-23T15:48:59.813Z,100882.25
2019-03-23T15:51:36.840Z,100873.94
2019-03-23T15:54:17.067Z,100877.34
2019-03-23T15:56:55.922Z,100872.38
2019-03-23T15:59:30.286Z,100883.75
2019-03-23T16:02:03.762Z,100875.05
2019-03-23T16:04:44.227Z,100880.00
2019-03-23T16:07:17.288Z,100874.67
2019-03-23T16:09:50.826Z,100875.31
2019-03-23T16:12:23.919Z,100864.68
2019-03-23T16:14:57.530Z,100862.86
2019-03-23T16:17:31.040Z,100854.59
2019-03-23T16:20:05.660Z,100856.89
2019-03-23T16:22:39.637Z,100859.64
2019-03-23T16:25:21.374Z,100855.56
2019-03-23T16:27:56.228Z,100854.25
2019-03-23T16:30:43.206Z,100853.52
2019-03-23T16:33:16.525Z,100848.88
2019-03-23T16:35:50.438Z,100840.30
2019-03-23T16:38:32.288Z,100838.69
2019-03-23T16:41:06.649Z,100842.82
2019-03-23T16:43:41.787Z,100840.06
2019-03-23T16:46:21.309Z,100838.57
2019-03-23T16:48:55.164Z,100837.75
2019-03-23T16:51:28.391Z,100829.55
2019-03-23T16:54:08.886Z,100835.00
2019-03-23T16:56:42.370Z,100835.55
2019-03-23T16:59:21.821Z,100828.28
2019-03-23T17:02:02.031Z,100827.67
2019-03-23T17:04:36.689Z,100829.63
2019-03-23T17:07:10.071Z,100832.17
2019-03-23T17:09:44.497Z,100828.52
2019-03-23T17:12:19.066Z,100818.70
2019-03-23T17:14:55.103Z,100824.70
2019-03-23T17:17:26.918Z,100818.20
2019-03-23T17:20:07.016Z,100817.97
2019-03-23T17:22:47.966Z,100814.08
2019-03-23T17:25:28.760Z,100807.46
2019-03-23T17:28:09.043Z,100809.22
2019-03-23T17:30:42.750Z,100807.09
2019-03-23T17:33:24.162Z,100806.46
2019-03-23T17:35:58.047Z,100801.78
2019-03-23T17:38:41.365Z,100803.21
2019-03-23T17:41:23.243Z,100810.36
2019-03-23T17:44:04.193Z,100799.14
2019-03-23T17:46:47.073Z,100804.41
2019-03-23T17:49:21.388Z,100801.98
2019-03-23T17:52:03.797Z,100795.59
2019-03-23T17:54:44.174Z,100799.83
2019-03-23T17:57:24.979Z,100791.02
2019-03-23T18:00:05.789Z,100796.41
2019-03-23T18:02:40.672Z,100789.33
2019-03-23T18:05:15.836Z,100791.29
2019-03-23T18:07:56.116Z,100791.08
2019-03-23T18:10:37.286Z,100795.67
2019-03-23T18:13:16.491Z,100799.16
2019-03-23T18:15:53.314Z,100795.61
2019-03-23T18:18:28.405Z,100795.34
2019-03-23T18:21:11.015Z,100802.22
2019-03-23T18:23:52.030Z,100801.48
2019-03-23T18:26:28.962Z,100802.03
2019-03-23T18:29:08.008Z,100800.98
2019-03-23T18:31:48.049Z,100802.28
2019-03-23T18:34:30.306Z,100801.98
2019-03-23T18:37:11.678Z,100797.66
2019-03-23T18:39:46.787Z,100802.17
2019-03-23T18:42:22.187Z,100800.47
2019-03-23T18:47:50.475Z,100800.71
2019-03-23T18:50:34.025Z,100786.02
2019-03-23T18:53:15.241Z,100787.72
2019-03-23T18:55:48.735Z,100780.08
2019-03-23T18:58:30.097Z,100773.81
2019-03-23T19:01:10.118Z,100777.45
2019-03-23T19:03:51.208Z,100773.67
2019-03-23T19:06:32.221Z,100772.09
2019-03-23T19:09:12.269Z,100771.59
2019-03-23T19:11:53.635Z,100772.34
2019-03-23T19:14:38.283Z,100769.59
2019-03-23T19:17:21.007Z,100776.46
2019-03-23T19:20:02.046Z,100772.61
2019-03-23T19:22:42.230Z,100767.28
2019-03-23T19:25:23.499Z,100765.84
2019-03-23T19:28:03.715Z,100758.00
2019-03-23T19:30:44.119Z,100753.44
2019-03-23T19:33:24.021Z,100757.01
2019-03-23T19:35:57.989Z,100764.64
2019-03-23T19:38:38.997Z,100757.97
2019-03-23T19:41:21.240Z,100759.84
2019-03-23T19:44:02.041Z,100769.77
2019-03-23T19:46:36.952Z,100774.53
2019-03-23T19:49:19.219Z,100772.48
2019-03-23T19:52:00.402Z,100777.02
2019-03-23T19:54:34.031Z,100776.28
2019-03-23T19:57:08.405Z,100775.14
2019-03-23T19:59:47.724Z,100778.53
2019-03-23T20:02:28.020Z,100781.09
2019-03-23T20:05:10.354Z,100782.23
2019-03-23T20:07:48.715Z,100781.47
2019-03-23T20:10:24.107Z,100787.92
2019-03-23T20:13:05.352Z,100777.84
2019-03-23T20:15:40.515Z,100776.73
2019-03-23T20:18:24.108Z,100776.60
2019-03-23T20:21:05.201Z,100772.61
2019-03-23T20:23:45.953Z,100778.48
2019-03-23T20:26:30.599Z,100783.23
2019-03-23T20:29:10.162Z,100784.86
2019-03-23T20:31:51.147Z,100789.17
2019-03-23T20:34:32.067Z,100787.66
2019-03-23T20:37:12.905Z,100784.20
2019-03-23T20:39:53.030Z,100786.50
2019-03-23T20:42:27.722Z,100785.81
2019-03-23T20:45:15.441Z,100790.97
2019-03-23T20:47:57.335Z,100791.49
2019-03-23T20:50:37.459Z,100786.77
2019-03-23T20:53:19.031Z,100788.83
2019-03-23T20:55:53.061Z,100788.54
2019-03-23T20:58:31.460Z,100799.37
2019-03-23T21:01:06.835Z,100801.02
2019-03-23T21:03:47.259Z,100800.38
2019-03-23T21:06:28.554Z,100794.23
2019-03-23T21:09:08.090Z,100798.00
2019-03-23T21:11:50.205Z,100796.48
2019-03-23T21:14:31.270Z,100797.81
2019-03-23T21:17:05.100Z,100801.66
2019-03-23T21:19:47.001Z,100801.06
2019-03-23T21:22:30.425Z,100792.87
2019-03-23T21:25:03.631Z,100796.39
2019-03-23T21:27:48.067Z,100794.24
2019-03-23T21:30:29.140Z,100787.00
2019-03-23T21:33:02.662Z,100783.00
2019-03-23T21:35:45.257Z,100786.76
2019-03-23T21:38:20.090Z,100789.93
2019-03-23T21:41:00.043Z,100788.19
2019-03-23T21:43:34.037Z,100786.21
2019-03-23T21:46:15.119Z,100779.38
2019-03-23T21:48:56.016Z,100785.20
2019-03-23T21:51:31.528Z,100783.42
2019-03-23T21:54:12.222Z,100785.89
2019-03-23T21:56:57.242Z,100784.88
2019-03-23T21:59:37.038Z,100790.48
2019-03-23T22:02:17.155Z,100797.30
2019-03-23T22:04:52.423Z,100797.53
2019-03-23T22:07:25.654Z,100794.55
2019-03-23T22:10:06.193Z,100801.05
2019-03-23T22:12:47.162Z,100788.87
2019-03-23T22:15:28.170Z,100797.29
2019-03-23T22:18:03.625Z,100804.39
2019-03-23T22:20:44.028Z,100799.77
2019-03-23T22:23:21.896Z,100805.85
2019-03-23T22:26:01.874Z,100805.42
2019-03-23T22:28:35.394Z,100811.79
2019-03-23T22:31:10.156Z,100804.00
2019-03-23T22:33:50.278Z,100811.34
2019-03-23T22:36:31.207Z,100812.41
2019-03-23T22:39:11.205Z,100814.09
2019-03-23T22:41:44.916Z,100813.61
2019-03-23T22:44:22.608Z,100817.35
2019-03-23T22:47:06.210Z,100824.22
2019-03-23T22:49:47.430Z,100823.18
2019-03-23T22:52:21.251Z,100832.66
2019-03-23T22:54:55.170Z,100835.41
2019-03-23T22:57:28.930Z,100841.59
2019-03-23T23:00:02.723Z,100842.95
2019-03-23T23:02:43.077Z,100847.44
2019-03-23T23:05:23.382Z,100848.50
2019-03-23T23:08:03.064Z,100852.38
2019-03-23T23:10:54.148Z,100848.67
2019-03-23T23:13:34.006Z,100858.02
2019-03-23T23:16:15.476Z,100865.83
2019-03-23T23:18:56.162Z,100865.62
2019-03-23T23:21:37.078Z,100868.88
2019-03-23T23:24:12.812Z,100870.53
2019-03-23T23:26:45.938Z,100872.82
2019-03-23T23:29:20.287Z,100881.62
2019-03-23T23:31:54.729Z,100889.27
2019-03-23T23:34:36.482Z,100895.39
2019-03-23T23:37:11.616Z,100902.84
2019-03-23T23:39:47.394Z,100914.14
2019-03-23T23:42:27.100Z,100915.95
2019-03-23T23:45:01.806Z,100920.91
2019-03-23T23:48:19.732Z,100924.23
2019-03-23T23:50:54.981Z,100932.92
2019-03-23T23:53:28.166Z,100930.97
2019-03-23T23:56:02.283Z,100951.02
2019-03-23T23:58:37.872Z,100941.63
